Time;durP1;ratioP1;P1;durP2;ratioP2;P2;SDS_P1;SDS_P2;PMS_P1;PMS_P2;Temp;Humidity;BMP_temperature;BMP_pressure;BME280_temperature;BME280_humidity;BME280_pressure;Samples;Min_cycle;Max_cycle;Signal;HPM_P1;HPM_P2
2022/05/08 00:02:13;;;;;;;19.42;4.43;;;9.20;99.90;;;;;;4997412;28;20048;-67
2022/05/08 00:04:39;;;;;;;9.30;3.35;;;9.20;99.90;;;;;;5004637;28;20058;-67
2022/05/08 00:07:05;;;;;;;6.60;2.80;;;9.20;99.90;;;;;;5004273;28;20058;-67
2022/05/08 00:09:31;;;;;;;7.80;3.55;;;9.10;99.90;;;;;;4998358;28;20066;-67
2022/05/08 00:11:57;;;;;;;3.60;2.60;;;9.20;99.90;;;;;;4999778;28;20081;-64
2022/05/08 00:14:22;;;;;;;7.55;3.58;;;9.10;99.90;;;;;;5000761;28;20046;-67
2022/05/08 00:16:48;;;;;;;6.38;2.92;;;9.10;99.90;;;;;;5000867;28;20050;-64
2022/05/08 00:19:13;;;;;;;4.47;2.15;;;9.10;99.90;;;;;;4997381;28;20060;-65
2022/05/08 00:21:39;;;;;;;4.30;3.22;;;9.10;99.90;;;;;;4996580;28;20149;-65
2022/05/08 00:24:06;;;;;;;7.95;2.58;;;9.10;99.90;;;;;;4997237;28;20089;-65
2022/05/08 00:26:31;;;;;;;4.57;2.63;;;9.00;99.90;;;;;;4997952;28;20049;-65
2022/05/08 00:28:57;;;;;;;4.32;2.60;;;9.00;99.90;;;;;;4998555;28;20041;-66
2022/05/08 00:31:24;;;;;;;10.80;3.28;;;9.00;99.90;;;;;;5010775;28;20053;-65
2022/05/08 00:33:50;;;;;;;9.63;3.50;;;9.00;99.90;;;;;;5012829;28;20049;-65
2022/05/08 00:36:16;;;;;;;10.23;2.70;;;9.00;99.90;;;;;;5011578;28;20295;-65
2022/05/08 00:38:41;;;;;;;9.93;4.65;;;9.00;99.90;;;;;;5011353;28;20792;-65
2022/05/08 00:41:08;;;;;;;7.75;2.97;;;8.90;99.90;;;;;;5013421;28;20080;-66
2022/05/08 00:43:34;;;;;;;7.97;3.22;;;8.90;99.90;;;;;;5013838;28;20046;-66
2022/05/08 00:46:02;;;;;;;12.30;5.22;;;8.90;99.90;;;;;;5012925;28;20076;-66
2022/05/08 00:48:29;;;;;;;8.02;3.28;;;8.90;99.90;;;;;;5005626;28;20088;-65
2022/05/08 00:50:55;;;;;;;13.98;4.32;;;8.90;99.90;;;;;;5013227;28;20045;-66
2022/05/08 00:53:21;;;;;;;9.73;3.15;;;8.90;99.90;;;;;;5011884;28;20048;-65
2022/05/08 00:55:48;;;;;;;5.95;3.50;;;8.90;99.90;;;;;;5011914;28;20057;-66
2022/05/08 00:58:15;;;;;;;5.93;2.45;;;8.90;99.90;;;;;;5013953;28;20504;-66
2022/05/08 01:00:41;;;;;;;7.28;3.67;;;8.90;99.90;;;;;;5013388;28;20037;-65
2022/05/08 01:03:06;;;;;;;7.03;3.92;;;8.90;99.90;;;;;;5013734;28;20096;-65
2022/05/08 01:05:32;;;;;;;9.25;3.10;;;8.90;99.90;;;;;;5011840;28;20049;-66
2022/05/08 01:07:57;;;;;;;8.63;3.28;;;8.80;99.90;;;;;;5011878;28;20053;-65
2022/05/08 01:10:23;;;;;;;5.65;2.58;;;8.80;99.90;;;;;;5014192;28;20833;-66
2022/05/08 01:12:49;;;;;;;7.88;3.38;;;8.80;99.90;;;;;;5011940;28;20878;-66
2022/05/08 01:15:18;;;;;;;7.35;4.13;;;8.80;99.90;;;;;;5011427;28;20038;-66
2022/05/08 01:17:44;;;;;;;8.93;3.10;;;8.80;99.90;;;;;;5013855;28;20049;-66
2022/05/08 01:20:10;;;;;;;6.70;2.53;;;8.80;99.90;;;;;;5012365;28;20053;-65
2022/05/08 01:22:37;;;;;;;7.35;3.42;;;8.70;99.90;;;;;;5013033;28;20045;-66
2022/05/08 01:25:03;;;;;;;4.78;1.98;;;8.80;99.90;;;;;;5012521;28;20119;-66
2022/05/08 01:27:29;;;;;;;6.25;2.42;;;8.70;99.90;;;;;;5012719;28;20140;-66
2022/05/08 01:29:54;;;;;;;7.15;2.40;;;8.70;99.90;;;;;;5013295;28;20041;-67
2022/05/08 01:32:20;;;;;;;8.88;2.92;;;8.70;99.90;;;;;;5011811;28;20087;-66
2022/05/08 01:34:45;;;;;;;5.75;2.40;;;8.70;99.90;;;;;;5010885;28;20053;-66
2022/05/08 01:37:11;;;;;;;6.78;2.97;;;8.60;99.90;;;;;;5013706;28;20049;-65
2022/05/08 01:39:36;;;;;;;4.35;2.10;;;8.60;99.90;;;;;;5012859;28;20037;-66
2022/05/08 01:42:04;;;;;;;8.63;3.78;;;8.60;99.90;;;;;;5006378;28;20046;-66
2022/05/08 01:44:30;;;;;;;8.52;3.22;;;8.60;99.90;;;;;;5015135;28;20041;-66
2022/05/08 01:49:40;;;;;;;3.38;2.30;;;8.60;99.90;;;;;;5015136;28;20053;-66
2022/05/08 01:52:07;;;;;;;4.80;1.65;;;8.50;99.90;;;;;;5008534;28;20037;-66
2022/05/08 01:54:33;;;;;;;6.18;2.60;;;8.50;99.90;;;;;;5016336;28;20041;-67
2022/05/08 01:56:58;;;;;;;4.20;2.65;;;8.40;99.90;;;;;;5014458;28;20054;-67
2022/05/08 01:59:24;;;;;;;2.63;1.95;;;8.40;99.90;;;;;;5014672;28;20057;-67
2022/05/08 02:01:50;;;;;;;3.47;2.08;;;8.40;99.90;;;;;;5011951;28;20586;-67
2022/05/08 02:04:16;;;;;;;4.80;2.05;;;8.30;99.90;;;;;;5016290;28;20644;-67
2022/05/08 02:06:43;;;;;;;5.75;3.42;;;8.30;99.90;;;;;;5016564;28;20124;-66
2022/05/08 02:09:08;;;;;;;9.50;3.00;;;8.30;99.90;;;;;;5015931;28;20144;-67
2022/05/08 02:11:35;;;;;;;3.78;2.20;;;8.30;99.90;;;;;;5017673;28;20057;-67
2022/05/08 02:14:02;;;;;;;8.82;2.35;;;8.20;99.90;;;;;;5017284;28;20115;-67
2022/05/08 02:16:29;;;;;;;4.63;2.10;;;8.20;99.90;;;;;;5018066;28;20845;-67
2022/05/08 02:18:55;;;;;;;6.82;3.05;;;8.20;99.90;;;;;;5018565;28;20041;-67
2022/05/08 02:21:21;;;;;;;4.13;2.78;;;8.20;99.90;;;;;;5019113;28;20045;-66
2022/05/08 02:23:47;;;;;;;8.02;2.67;;;8.10;99.90;;;;;;5017709;28;20080;-66
2022/05/08 02:26:13;;;;;;;5.38;2.60;;;8.20;99.90;;;;;;5009056;28;20156;-67
2022/05/08 02:28:39;;;;;;;7.18;3.20;;;8.20;99.90;;;;;;5008581;28;20046;-67
2022/05/08 02:31:05;;;;;;;6.32;3.25;;;8.20;99.90;;;;;;5016091;28;20041;-66
2022/05/08 02:33:30;;;;;;;4.90;3.13;;;8.20;99.90;;;;;;5017428;28;20076;-67
2022/05/08 02:35:56;;;;;;;3.60;2.83;;;8.10;99.90;;;;;;5018562;28;20053;-67
2022/05/08 02:38:21;;;;;;;7.97;2.10;;;8.10;99.90;;;;;;5018122;28;20050;-67
2022/05/08 02:40:47;;;;;;;9.82;3.00;;;8.10;99.90;;;;;;5018180;28;20076;-67
2022/05/08 02:43:14;;;;;;;10.05;2.83;;;8.10;99.90;;;;;;5018120;28;20060;-66
2022/05/08 02:45:40;;;;;;;3.40;1.65;;;8.10;99.90;;;;;;5016406;28;20110;-67
2022/05/08 02:48:07;;;;;;;5.70;2.20;;;8.10;99.90;;;;;;5018114;28;20049;-67
2022/05/08 02:50:33;;;;;;;8.57;2.45;;;8.00;99.90;;;;;;5018608;28;20814;-67
2022/05/08 02:52:59;;;;;;;11.18;2.78;;;8.00;99.90;;;;;;5017052;28;20057;-67
2022/05/08 03:00:52;;;;;;;6.22;2.42;;;8.10;99.90;;;;;;5017568;28;20056;-67
2022/05/08 03:03:18;;;;;;;4.97;2.55;;;8.00;99.90;;;;;;5017781;28;20205;-67
2022/05/08 03:05:46;;;;;;;6.65;2.10;;;8.00;99.90;;;;;;5017475;28;20492;-67
2022/05/08 03:08:14;;;;;;;10.50;2.70;;;7.90;99.90;;;;;;5016873;28;20053;-67
2022/05/08 03:13:26;;;;;;;4.82;2.05;;;7.90;99.90;;;;;;5016334;28;20175;-67
2022/05/08 03:15:51;;;;;;;2.55;1.75;;;7.90;99.90;;;;;;5016922;28;20061;-67
2022/05/08 03:18:18;;;;;;;3.40;2.17;;;8.00;99.90;;;;;;5017729;28;20774;-67
2022/05/08 03:20:44;;;;;;;5.70;1.85;;;8.00;99.90;;;;;;5016408;28;20053;-67
2022/05/08 03:23:09;;;;;;;5.05;2.13;;;8.00;99.90;;;;;;5016874;28;20053;-67
2022/05/08 03:25:35;;;;;;;4.13;2.03;;;7.90;99.90;;;;;;5017459;28;20045;-67
2022/05/08 03:28:01;;;;;;;4.50;2.00;;;7.90;99.90;;;;;;5017082;28;20083;-67
2022/05/08 03:30:28;;;;;;;3.78;2.45;;;7.90;99.90;;;;;;5017462;28;20116;-67
2022/05/08 03:32:54;;;;;;;4.47;1.83;;;7.90;99.90;;;;;;5015917;28;20485;-67
2022/05/08 03:35:20;;;;;;;5.50;2.17;;;7.90;99.90;;;;;;5016642;28;20051;-67
2022/05/08 03:37:45;;;;;;;7.90;2.20;;;7.90;99.90;;;;;;5015165;28;20045;-67
2022/05/08 03:40:11;;;;;;;3.05;2.45;;;7.80;99.90;;;;;;5016621;28;20233;-67
2022/05/08 03:42:36;;;;;;;4.85;1.75;;;7.90;99.90;;;;;;5016665;28;20227;-67
2022/05/08 03:45:02;;;;;;;3.40;3.10;;;7.90;99.90;;;;;;5017289;28;20523;-67
2022/05/08 03:47:28;;;;;;;2.60;1.83;;;7.90;99.90;;;;;;5014875;28;20045;-67
2022/05/08 03:49:53;;;;;;;3.72;2.00;;;7.90;99.90;;;;;;5017414;28;20091;-67
2022/05/08 03:52:19;;;;;;;1.73;1.33;;;7.90;99.90;;;;;;5015941;28;20166;-67
2022/05/08 03:54:44;;;;;;;7.05;1.67;;;7.90;99.90;;;;;;5016542;28;20049;-67
2022/05/08 03:57:10;;;;;;;4.22;2.00;;;7.90;99.90;;;;;;5016381;28;20157;-67
2022/05/08 03:59:35;;;;;;;4.38;1.80;;;7.90;99.90;;;;;;5017189;28;20144;-67
2022/05/08 04:02:01;;;;;;;2.63;1.75;;;7.70;99.90;;;;;;5015936;28;20053;-67
2022/05/08 04:04:27;;;;;;;5.25;2.20;;;7.90;99.90;;;;;;5016316;28;20445;-67
2022/05/08 04:06:52;;;;;;;4.85;1.67;;;7.90;99.90;;;;;;5014954;28;20069;-67
2022/05/08 04:09:18;;;;;;;3.70;2.08;;;7.80;99.90;;;;;;5015512;28;20123;-67
2022/05/08 04:11:43;;;;;;;3.67;2.30;;;7.90;99.90;;;;;;5015641;28;20053;-67
2022/05/08 04:14:09;;;;;;;3.63;1.73;;;7.90;99.90;;;;;;5016687;28;20052;-67
2022/05/08 04:16:35;;;;;;;3.67;2.13;;;7.90;99.90;;;;;;5015225;28;20124;-67
2022/05/08 04:19:00;;;;;;;3.58;1.98;;;7.80;99.90;;;;;;5016830;28;20040;-67
2022/05/08 04:21:26;;;;;;;3.75;1.52;;;7.80;99.90;;;;;;5016267;28;20119;-66
2022/05/08 04:26:35;;;;;;;3.35;1.83;;;7.80;99.90;;;;;;5016725;28;20065;-67
2022/05/08 04:29:03;;;;;;;2.97;1.42;;;7.90;99.90;;;;;;5014236;28;20060;-67
2022/05/08 04:31:29;;;;;;;4.57;2.10;;;7.90;99.90;;;;;;5015835;28;20806;-67
2022/05/08 04:33:55;;;;;;;3.67;1.52;;;7.90;99.90;;;;;;5015391;28;20053;-66
2022/05/08 04:36:20;;;;;;;3.28;1.70;;;8.00;99.90;;;;;;5015399;28;20041;-67
2022/05/08 04:38:46;;;;;;;3.67;1.73;;;8.00;99.90;;;;;;5013628;28;20150;-67
2022/05/08 04:41:12;;;;;;;1.80;1.40;;;7.90;99.90;;;;;;5014271;28;20076;-67
2022/05/08 04:43:37;;;;;;;3.72;1.92;;;8.00;99.90;;;;;;5015098;28;20492;-67
2022/05/08 04:46:03;;;;;;;3.42;1.80;;;8.10;99.90;;;;;;5014929;28;20064;-66
2022/05/08 04:48:29;;;;;;;7.10;2.38;;;8.10;99.90;;;;;;5015775;28;20053;-67
2022/05/08 04:50:54;;;;;;;2.92;1.92;;;8.20;99.90;;;;;;5014565;28;20077;-66
2022/05/08 04:53:20;;;;;;;2.53;1.80;;;8.30;99.90;;;;;;5013839;28;20046;-66
2022/05/08 04:55:45;;;;;;;5.05;2.15;;;8.30;99.90;;;;;;5011835;28;20053;-65
2022/05/08 04:58:11;;;;;;;2.17;1.55;;;8.40;99.90;;;;;;5013510;28;20064;-65
2022/05/08 05:00:37;;;;;;;4.65;2.00;;;8.40;99.90;;;;;;5013621;28;20037;-65
2022/05/08 05:03:03;;;;;;;5.35;2.67;;;8.50;99.90;;;;;;5013599;28;20064;-65
2022/05/08 05:05:29;;;;;;;1.95;1.67;;;8.60;99.90;;;;;;5012690;28;20054;-65
2022/05/08 05:07:55;;;;;;;5.03;1.83;;;8.70;99.90;;;;;;5012658;28;20053;-65
2022/05/08 05:10:21;;;;;;;6.20;1.50;;;8.70;99.90;;;;;;5008958;28;20477;-65
2022/05/08 05:12:47;;;;;;;3.83;2.63;;;8.80;99.90;;;;;;5000054;28;20089;-65
2022/05/08 05:15:12;;;;;;;5.43;2.10;;;8.80;99.90;;;;;;4990863;28;20172;-65
2022/05/08 05:17:39;;;;;;;4.20;1.60;;;8.90;99.90;;;;;;5000335;28;20315;-65
2022/05/08 05:20:06;;;;;;;2.45;2.00;;;8.90;99.90;;;;;;5003640;28;20148;-65
2022/05/08 05:22:31;;;;;;;1.63;1.40;;;9.00;99.90;;;;;;4997775;28;20708;-66
2022/05/08 05:24:57;;;;;;;3.67;2.08;;;9.10;99.90;;;;;;4999405;28;20037;-65
2022/05/08 05:27:24;;;;;;;2.40;1.88;;;9.10;99.90;;;;;;5007770;28;20747;-65
2022/05/08 05:29:50;;;;;;;5.50;1.52;;;9.20;99.90;;;;;;4997764;28;20049;-65
2022/05/08 05:32:15;;;;;;;6.32;1.63;;;9.30;99.90;;;;;;5012123;28;20088;-66
2022/05/08 05:34:41;;;;;;;4.65;1.70;;;9.40;99.90;;;;;;5002912;28;20069;-66
2022/05/08 05:37:07;;;;;;;3.30;1.80;;;9.50;99.90;;;;;;5004752;28;20046;-66
2022/05/08 05:39:33;;;;;;;2.65;1.73;;;9.60;99.90;;;;;;5011155;28;20108;-66
2022/05/08 05:41:58;;;;;;;8.10;2.17;;;9.70;99.90;;;;;;5002354;28;20060;-66
2022/05/08 05:44:24;;;;;;;4.40;2.33;;;9.80;99.90;;;;;;5004331;28;20056;-66
2022/05/08 05:49:34;;;;;;;5.03;1.70;;;10.10;99.90;;;;;;5005347;28;20061;-66
2022/05/08 05:52:00;;;;;;;9.20;2.58;;;10.20;99.90;;;;;;4999011;28;20073;-66
2022/05/08 05:54:26;;;;;;;5.93;2.17;;;10.30;99.90;;;;;;4996407;28;20077;-66
2022/05/08 05:56:51;;;;;;;2.10;1.38;;;10.30;99.90;;;;;;4996966;28;20133;-66
2022/05/08 05:59:17;;;;;;;1.65;1.50;;;10.30;99.90;;;;;;4996544;28;20850;-66
2022/05/08 06:01:43;;;;;;;3.92;1.63;;;10.30;99.90;;;;;;4994814;28;20116;-66
2022/05/08 06:04:09;;;;;;;4.72;1.98;;;10.40;99.90;;;;;;4997984;28;20081;-66
2022/05/08 06:06:35;;;;;;;2.55;1.65;;;10.50;99.90;;;;;;5006148;28;20632;-66
2022/05/08 06:09:00;;;;;;;7.18;1.90;;;10.60;99.90;;;;;;4996434;28;20049;-66
2022/05/08 06:11:26;;;;;;;2.35;1.30;;;10.60;99.90;;;;;;4996875;28;20049;-66
2022/05/08 06:13:52;;;;;;;5.32;2.05;;;10.70;99.90;;;;;;5004934;28;20102;-66
2022/05/08 06:16:18;;;;;;;2.42;1.30;;;10.90;99.90;;;;;;5014689;28;20049;-66
2022/05/08 06:18:44;;;;;;;8.80;2.42;;;11.10;99.90;;;;;;5015998;28;20119;-66
2022/05/08 06:21:10;;;;;;;2.30;1.02;;;11.00;99.90;;;;;;5015499;28;20723;-67
2022/05/08 06:23:36;;;;;;;4.43;2.10;;;11.00;99.90;;;;;;5014970;28;20075;-67
2022/05/08 06:26:05;;;;;;;2.13;1.35;;;11.10;99.90;;;;;;5013376;28;20076;-67
2022/05/08 06:28:31;;;;;;;3.28;1.50;;;11.20;99.90;;;;;;5015423;28;20056;-66
2022/05/08 06:30:57;;;;;;;3.10;1.90;;;11.10;99.90;;;;;;5013324;28;20049;-67
2022/05/08 06:33:23;;;;;;;3.25;1.45;;;11.20;99.90;;;;;;5015635;28;20075;-66
2022/05/08 06:35:48;;;;;;;1.52;1.33;;;11.00;99.90;;;;;;5013663;28;20077;-66
2022/05/08 06:38:14;;;;;;;2.13;1.20;;;11.10;99.90;;;;;;5013286;28;20157;-67
2022/05/08 06:40:40;;;;;;;4.30;1.65;;;11.20;99.90;;;;;;5015441;28;20041;-67
2022/05/08 06:43:07;;;;;;;9.35;2.13;;;11.10;99.90;;;;;;5015132;28;20045;-67
2022/05/08 06:45:33;;;;;;;3.72;1.50;;;11.00;99.90;;;;;;5015503;28;20295;-67
2022/05/08 06:47:58;;;;;;;4.80;1.80;;;11.00;99.90;;;;;;5016076;28;20147;-67
2022/05/08 06:50:24;;;;;;;5.32;1.55;;;11.10;99.90;;;;;;5014962;28;20053;-66
2022/05/08 06:52:49;;;;;;;5.43;1.65;;;11.10;99.90;;;;;;5015687;28;20045;-67
2022/05/08 06:55:15;;;;;;;3.53;1.67;;;11.00;99.90;;;;;;5016249;28;20397;-66
2022/05/08 06:57:41;;;;;;;4.18;1.50;;;10.90;99.90;;;;;;5015421;28;20160;-66
2022/05/08 07:02:51;;;;;;;3.33;1.85;;;11.10;99.90;;;;;;5015638;28;20734;-66
2022/05/08 07:05:17;;;;;;;3.95;1.65;;;11.30;99.90;;;;;;5015425;28;20041;-66
2022/05/08 07:07:43;;;;;;;5.15;1.85;;;11.70;99.90;;;;;;5015840;28;20486;-66
2022/05/08 07:10:09;;;;;;;2.97;1.67;;;12.50;99.50;;;;;;5014200;28;20057;-66
2022/05/08 07:12:36;;;;;;;7.00;1.80;;;12.70;98.50;;;;;;5003800;28;20152;-66
2022/05/08 07:15:03;;;;;;;3.42;1.55;;;12.40;97.20;;;;;;4995316;28;20061;-67
2022/05/08 07:17:29;;;;;;;6.55;2.10;;;12.60;99.90;;;;;;4992631;28;20125;-67
2022/05/08 07:19:55;;;;;;;4.45;1.63;;;13.90;99.90;;;;;;4993758;28;20046;-67
2022/05/08 07:22:22;;;;;;;4.68;2.00;;;14.40;95.20;;;;;;4994184;28;20137;-67
2022/05/08 07:24:47;;;;;;;2.65;1.48;;;13.80;94.60;;;;;;4993583;28;20045;-67
2022/05/08 07:27:13;;;;;;;5.18;1.65;;;13.40;98.40;;;;;;4994307;28;20104;-66
2022/05/08 07:29:42;;;;;;;4.40;1.92;;;13.30;98.90;;;;;;4994363;28;20050;-67
2022/05/08 07:32:09;;;;;;;4.00;2.00;;;13.20;95.80;;;;;;4994554;28;20449;-67
2022/05/08 07:37:19;;;;;;;2.88;1.77;;;13.10;99.00;;;;;;4999748;28;20054;-67
2022/05/08 07:39:44;;;;;;;3.17;1.60;;;13.30;95.80;;;;;;4997576;28;20049;-67
2022/05/08 07:42:10;;;;;;;3.92;1.48;;;13.30;98.20;;;;;;4999483;28;20073;-66
2022/05/08 07:44:35;;;;;;;3.70;2.10;;;13.90;98.60;;;;;;4994041;28;20154;-67
2022/05/08 07:47:01;;;;;;;3.40;1.73;;;14.70;93.70;;;;;;5007675;28;20649;-67
2022/05/08 07:49:27;;;;;;;4.78;1.77;;;15.50;96.60;;;;;;5003123;28;20049;-67
2022/05/08 07:51:53;;;;;;;6.53;2.28;;;16.40;94.20;;;;;;5001052;28;20080;-67
2022/05/08 07:54:18;;;;;;;5.85;2.67;;;17.20;92.90;;;;;;5002190;28;20073;-67
2022/05/08 07:56:44;;;;;;;4.82;1.80;;;17.70;90.50;;;;;;5011755;28;20140;-67
2022/05/08 07:59:10;;;;;;;5.25;1.92;;;17.50;94.40;;;;;;5013409;28;20516;-67
2022/05/08 08:01:36;;;;;;;4.20;1.77;;;17.00;93.20;;;;;;4664177;28;10000026;-67
2022/05/08 08:04:02;;;;;;;6.00;1.60;;;17.10;91.80;;;;;;5011737;28;20042;-67
2022/05/08 08:06:28;;;;;;;5.22;1.60;;;17.50;93.30;;;;;;4992730;28;20687;-67
2022/05/08 08:08:54;;;;;;;3.97;1.60;;;17.60;93.30;;;;;;4992039;28;20041;-69
2022/05/08 08:11:20;;;;;;;4.35;2.00;;;18.20;93.60;;;;;;4995277;28;20053;-67
2022/05/08 08:13:46;;;;;;;3.47;1.83;;;17.90;88.20;;;;;;4991593;28;20042;-68
2022/05/08 08:16:12;;;;;;;4.93;1.75;;;17.90;85.60;;;;;;4994145;28;20049;-67
2022/05/08 08:18:42;;;;;;;2.47;1.45;;;18.10;91.20;;;;;;4986733;28;20826;-67
2022/05/08 08:21:09;;;;;;;2.53;1.50;;;17.80;90.70;;;;;;4995793;28;20088;-67
2022/05/08 08:23:35;;;;;;;2.65;1.60;;;17.80;90.40;;;;;;4994342;28;20440;-67
2022/05/08 08:26:01;;;;;;;5.00;1.67;;;18.40;90.80;;;;;;4995056;28;20049;-67
2022/05/08 08:28:27;;;;;;;3.17;1.38;;;18.60;82.20;;;;;;4992548;28;21245;-67
2022/05/08 08:30:53;;;;;;;3.13;1.60;;;18.20;88.70;;;;;;5000148;28;20033;-67
2022/05/08 08:33:18;;;;;;;3.17;1.40;;;17.60;83.20;;;;;;4994861;28;20735;-67
2022/05/08 08:35:44;;;;;;;4.47;1.63;;;17.30;89.90;;;;;;4998811;28;20049;-67
2022/05/08 08:38:09;;;;;;;5.00;2.38;;;16.70;90.40;;;;;;4646400;28;10000251;-67
2022/05/08 08:40:48;;;;;;;2.65;1.45;;;16.60;86.60;;;;;;4993526;28;20053;-67
2022/05/08 08:43:18;;;;;;;3.58;1.35;;;16.90;83.80;;;;;;4995498;28;20088;-67
2022/05/08 08:48:29;;;;;;;4.50;1.83;;;15.70;90.40;;;;;;4994341;28;20115;-67
2022/05/08 08:50:57;;;;;;;3.60;1.75;;;16.70;90.00;;;;;;4993000;28;20088;-65
2022/05/08 08:53:24;;;;;;;4.65;1.77;;;17.10;90.20;;;;;;4995996;28;20447;-66
2022/05/08 08:55:50;;;;;;;2.17;1.50;;;17.50;83.50;;;;;;4996539;28;20058;-66
2022/05/08 08:58:17;;;;;;;5.63;1.70;;;17.50;88.10;;;;;;5003212;28;20042;-66
2022/05/08 09:00:43;;;;;;;3.65;1.58;;;17.60;87.20;;;;;;5002549;28;20069;-66
2022/05/08 09:03:09;;;;;;;4.35;1.90;;;17.30;82.60;;;;;;4994050;28;20045;-65
2022/05/08 09:05:37;;;;;;;1.88;1.20;;;17.70;84.90;;;;;;4998636;28;20053;-66
2022/05/08 09:08:03;;;;;;;5.25;1.50;;;17.90;84.40;;;;;;4998283;28;20085;-66
2022/05/08 09:10:35;;;;;;;2.58;2.08;;;18.30;83.90;;;;;;5002286;28;20140;-66
2022/05/08 09:13:04;;;;;;;1.77;1.60;;;18.20;86.80;;;;;;4993120;28;20042;-66
2022/05/08 09:15:35;;;;;;;2.00;1.40;;;18.20;85.20;;;;;;4994042;28;20448;-65
2022/05/08 09:18:09;;;;;;;4.55;1.80;;;18.50;85.70;;;;;;5002902;28;20557;-66
2022/05/08 09:20:40;;;;;;;2.97;1.73;;;19.10;82.90;;;;;;5005886;28;20932;-66
2022/05/08 09:23:18;;;;;;;5.38;2.15;;;18.50;83.30;;;;;;5004524;28;20084;-66
2022/05/08 09:25:47;;;;;;;4.10;1.80;;;19.10;85.50;;;;;;4996364;28;20041;-66
2022/05/08 09:28:14;;;;;;;4.80;1.40;;;18.40;84.70;;;;;;4991113;28;20050;-66
2022/05/08 09:31:03;;;;;;;3.53;1.65;;;18.20;84.90;;;;;;4648547;28;10000403;-64
2022/05/08 09:33:34;;;;;;;3.20;1.90;;;18.40;80.20;;;;;;4991881;28;20054;-65
2022/05/08 09:36:02;;;;;;;4.97;1.75;;;18.40;85.20;;;;;;4993425;28;20641;-65
2022/05/08 09:38:43;;;;;;;5.65;1.83;;;17.80;82.50;;;;;;4996417;28;20060;-65
2022/05/08 09:41:09;;;;;;;4.43;2.35;;;17.60;80.70;;;;;;5001147;28;20045;-66
2022/05/08 09:43:35;;;;;;;5.13;1.55;;;18.40;85.60;;;;;;5004432;28;20096;-66
2022/05/08 09:46:02;;;;;;;3.88;1.95;;;18.40;80.20;;;;;;4995997;28;20096;-66
2022/05/08 09:48:29;;;;;;;4.05;1.67;;;17.60;81.70;;;;;;5003303;28;20077;-65
2022/05/08 09:51:04;;;;;;;3.47;1.70;;;17.00;82.10;;;;;;5005593;28;20148;-66
2022/05/08 09:53:31;;;;;;;2.90;1.55;;;17.00;80.90;;;;;;5002324;28;20174;-65
2022/05/08 09:55:58;;;;;;;10.35;2.00;;;17.00;82.20;;;;;;5001854;28;20092;-66
2022/05/08 09:58:25;;;;;;;8.65;1.67;;;17.30;83.60;;;;;;4994992;28;20140;-65
2022/05/08 10:00:52;;;;;;;5.47;1.63;;;17.10;83.80;;;;;;4992516;28;20038;-65
2022/05/08 10:03:21;;;;;;;2.55;1.70;;;16.90;79.30;;;;;;4994816;28;20060;-65
2022/05/08 10:05:47;;;;;;;6.53;1.70;;;17.70;81.90;;;;;;4997825;28;20096;-66
2022/05/08 10:08:20;;;;;;;5.45;1.80;;;17.90;80.40;;;;;;4998755;28;20097;-67
2022/05/08 10:14:04;;;;;;;6.57;1.95;;;18.50;78.70;;;;;;5018137;28;20088;-67
2022/05/08 10:16:53;;;;;;;3.58;2.05;;;17.80;78.10;;;;;;5018635;28;20052;-67
2022/05/08 10:19:21;;;;;;;3.55;1.65;;;17.50;77.30;;;;;;5017137;28;20041;-65
2022/05/08 10:22:14;;;;;;;4.25;2.08;;;17.50;81.90;;;;;;5018785;28;20053;-66
2022/05/08 10:24:47;;;;;;;6.43;1.73;;;17.80;80.80;;;;;;5018153;28;20084;-67
2022/05/08 10:27:32;;;;;;;3.55;1.98;;;18.30;78.70;;;;;;5018564;28;20045;-67
2022/05/08 10:29:57;;;;;;;2.90;1.63;;;18.50;75.60;;;;;;5017241;28;20049;-67
2022/05/08 10:32:32;;;;;;;4.45;1.73;;;17.00;76.90;;;;;;5014982;28;20602;-66
2022/05/08 10:35:07;;;;;;;5.70;1.80;;;17.40;80.60;;;;;;5016227;28;20053;-66
2022/05/08 10:37:34;;;;;;;4.95;2.00;;;17.80;79.20;;;;;;5016284;28;20052;-67
2022/05/08 10:40:00;;;;;;;7.03;2.05;;;18.10;81.50;;;;;;5016986;28;20144;-66
2022/05/08 10:42:50;;;;;;;3.42;2.33;;;17.80;77.50;;;;;;5016530;28;20799;-66
2022/05/08 10:45:30;;;;;;;4.43;1.90;;;17.30;78.60;;;;;;5017378;28;20055;-66
2022/05/08 10:47:57;;;;;;;7.18;1.83;;;17.50;78.90;;;;;;5016912;28;20404;-66
2022/05/08 10:50:22;;;;;;;3.78;1.50;;;16.60;80.00;;;;;;5017169;28;20553;-66
2022/05/08 10:52:49;;;;;;;6.90;2.58;;;16.60;80.70;;;;;;5017859;28;20618;-66
2022/05/08 10:55:16;;;;;;;6.40;2.40;;;16.30;79.80;;;;;;5017099;28;20037;-66
2022/05/08 10:57:47;;;;;;;2.65;1.92;;;15.70;80.70;;;;;;5015235;28;20076;-66
2022/05/08 11:00:17;;;;;;;5.00;2.13;;;15.50;82.10;;;;;;5017020;28;20056;-66
2022/05/08 11:02:51;;;;;;;5.38;1.63;;;15.40;82.10;;;;;;5016361;28;20042;-66
2022/05/08 11:05:24;;;;;;;3.47;1.80;;;16.00;81.60;;;;;;5016620;28;20087;-66
2022/05/08 11:07:59;;;;;;;2.67;1.60;;;15.80;79.60;;;;;;5014662;28;20123;-66
2022/05/08 11:10:34;;;;;;;4.55;1.80;;;15.40;81.10;;;;;;5014372;28;20408;-66
2022/05/08 11:13:03;;;;;;;2.78;1.85;;;15.10;81.60;;;;;;5011842;28;20053;-66
2022/05/08 11:15:30;;;;;;;5.03;2.42;;;15.10;81.40;;;;;;5011217;28;20443;-66
2022/05/08 11:18:15;;;;;;;4.10;1.73;;;15.00;82.00;;;;;;5011312;28;20053;-66
2022/05/08 11:20:53;;;;;;;3.67;1.63;;;15.10;84.20;;;;;;5013286;28;20103;-65
2022/05/08 11:23:26;;;;;;;2.85;1.73;;;15.00;82.50;;;;;;5012577;28;20049;-66
2022/05/08 11:25:57;;;;;;;6.03;2.05;;;15.20;83.10;;;;;;5013276;28;20053;-66
2022/05/08 11:28:24;;;;;;;3.35;2.15;;;15.40;81.70;;;;;;5014761;28;20053;-66
2022/05/08 11:30:51;;;;;;;5.28;1.70;;;15.20;79.90;;;;;;5013148;28;20088;-66
2022/05/08 11:36:05;;;;;;;3.42;1.60;;;15.70;80.60;;;;;;5014785;28;20081;-66
2022/05/08 11:38:37;;;;;;;8.07;2.58;;;16.00;80.30;;;;;;5013337;28;20052;-66
2022/05/08 11:41:05;;;;;;;3.47;1.60;;;15.70;78.40;;;;;;5013326;28;20037;-65
2022/05/08 11:43:50;;;;;;;2.53;1.85;;;15.60;79.70;;;;;;5013983;28;20633;-66
2022/05/08 11:46:18;;;;;;;6.72;1.95;;;15.40;76.60;;;;;;5003095;28;20034;-66
2022/05/08 11:48:47;;;;;;;3.28;1.70;;;15.40;77.90;;;;;;5010319;28;20747;-66
2022/05/08 11:51:20;;;;;;;6.70;2.00;;;15.60;77.80;;;;;;4998272;28;20057;-66
2022/05/08 11:53:49;;;;;;;;;;;15.80;77.40;;;;;;4997886;28;20145;-66
2022/05/08 11:56:21;;;;;;;2.53;1.40;;;15.80;77.80;;;;;;4995555;28;20634;-64
2022/05/08 11:58:47;;;;;;;4.00;1.67;;;16.00;76.60;;;;;;5000882;28;20867;-65
2022/05/08 12:01:30;;;;;;;3.75;2.05;;;15.90;77.90;;;;;;4993532;28;20042;-65
2022/05/08 12:04:26;;;;;;;1.83;1.65;;;15.80;77.80;;;;;;4993409;28;20049;-65
2022/05/08 12:07:06;;;;;;;3.33;2.10;;;15.80;80.80;;;;;;4991571;28;20046;-65
2022/05/08 12:09:41;;;;;;;4.13;1.83;;;16.00;80.30;;;;;;4993820;28;20054;-65
2022/05/08 12:12:26;;;;;;;6.70;1.77;;;15.90;79.00;;;;;;4994345;28;20111;-65
2022/05/08 12:15:02;;;;;;;4.35;1.70;;;15.90;78.30;;;;;;4995988;28;20398;-65
2022/05/08 12:17:29;;;;;;;5.47;2.05;;;15.70;78.30;;;;;;4994363;28;20057;-65
2022/05/08 12:19:59;;;;;;;2.40;1.23;;;15.80;79.70;;;;;;4992141;28;20185;-65
2022/05/08 12:22:28;;;;;;;3.88;1.42;;;15.80;76.50;;;;;;4992281;28;20599;-65
2022/05/08 12:24:58;;;;;;;4.32;1.88;;;16.10;77.60;;;;;;4994403;28;20057;-65
2022/05/08 12:27:24;;;;;;;4.35;1.63;;;16.10;76.80;;;;;;4999566;28;20045;-66
2022/05/08 12:29:50;;;;;;;3.47;1.50;;;15.80;77.90;;;;;;4992242;28;20046;-64
2022/05/08 12:32:17;;;;;;;4.85;1.90;;;15.80;78.10;;;;;;4994485;28;20058;-66
2022/05/08 12:34:44;;;;;;;4.13;1.75;;;16.10;77.70;;;;;;5011471;28;20041;-65
2022/05/08 12:37:11;;;;;;;7.22;2.08;;;16.30;77.80;;;;;;5007982;28;20111;-65
2022/05/08 12:39:37;;;;;;;3.03;1.30;;;16.40;76.20;;;;;;5000879;28;20832;-65
2022/05/08 12:42:04;;;;;;;3.38;1.88;;;16.50;77.70;;;;;;4996168;28;20527;-66
2022/05/08 12:44:29;;;;;;;5.68;1.90;;;16.80;76.40;;;;;;5002067;28;20050;-65
2022/05/08 12:46:56;;;;;;;3.40;1.35;;;16.40;74.20;;;;;;5000141;28;20442;-65
2022/05/08 12:49:21;;;;;;;2.95;1.50;;;16.20;77.10;;;;;;4997495;28;20046;-65
2022/05/08 12:51:47;;;;;;;2.83;1.88;;;16.20;77.60;;;;;;4997372;28;20048;-65
2022/05/08 12:54:12;;;;;;;3.67;1.90;;;16.40;78.20;;;;;;4997454;28;20038;-65
2022/05/08 12:56:38;;;;;;;7.05;1.92;;;16.20;77.90;;;;;;4994038;28;20046;-65
2022/05/08 13:01:51;;;;;;;6.03;2.17;;;15.80;77.80;;;;;;4995609;28;20141;-64
2022/05/08 13:04:17;;;;;;;5.72;1.90;;;15.80;78.50;;;;;;4999041;28;20070;-65
2022/05/08 13:06:42;;;;;;;2.72;1.33;;;15.80;75.80;;;;;;4997493;28;20125;-65
2022/05/08 13:09:08;;;;;;;5.07;1.80;;;16.00;77.60;;;;;;4999045;28;20853;-65
2022/05/08 13:11:35;;;;;;;5.22;2.28;;;15.90;76.80;;;;;;4996540;28;20045;-65
2022/05/08 13:14:02;;;;;;;2.83;1.45;;;16.10;78.40;;;;;;4997677;28;20156;-65
2022/05/08 13:16:28;;;;;;;4.22;1.65;;;16.00;79.90;;;;;;4997628;28;20488;-65
2022/05/08 13:18:53;;;;;;;3.30;1.60;;;16.10;77.70;;;;;;4998273;28;20041;-65
2022/05/08 13:21:19;;;;;;;5.38;2.60;;;16.20;77.90;;;;;;4996137;28;20049;-65
2022/05/08 13:23:45;;;;;;;3.67;1.55;;;16.20;76.70;;;;;;4998592;28;20049;-65
2022/05/08 13:26:11;;;;;;;5.75;1.90;;;16.30;77.90;;;;;;4997686;28;20049;-67